sensor_id;sensor_type;location;lat;lon;timestamp;P1;durP1;ratioP1;P2;durP2;ratioP2
6356;SDS011;3211;53.452;-2.264;2023-01-19T00:00:18;21.00;;;12.80;;
6356;SDS011;3211;53.452;-2.264;2023-01-19T00:02:47;20.10;;;13.00;;
6356;SDS011;3211;53.452;-2.264;2023-01-19T00:05:14;19.00;;;12.63;;
6356;SDS011;3211;53.452;-2.264;2023-01-19T00:07:42;24.17;;;12.70;;
6356;SDS011;3211;53.452;-2.264;2023-01-19T00:10:10;22.87;;;14.20;;
6356;SDS011;3211;53.452;-2.264;2023-01-19T00:12:37;20.37;;;12.47;;
6356;SDS011;3211;53.452;-2.264;2023-01-19T00:15:04;27.50;;;13.40;;
6356;SDS011;3211;53.452;-2.264;2023-01-19T00:17:31;27.40;;;12.60;;
6356;SDS011;3211;53.452;-2.264;2023-01-19T00:20:00;23.63;;;13.50;;
6356;SDS011;3211;53.452;-2.264;2023-01-19T00:22:27;21.67;;;12.40;;
6356;SDS011;3211;53.452;-2.264;2023-01-19T00:24:54;19.50;;;11.10;;
6356;SDS011;3211;53.452;-2.264;2023-01-19T00:27:21;20.27;;;12.23;;
6356;SDS011;3211;53.452;-2.264;2023-01-19T00:29:48;20.90;;;12.00;;
6356;SDS011;3211;53.452;-2.264;2023-01-19T00:32:15;21.10;;;11.57;;
6356;SDS011;3211;53.452;-2.264;2023-01-19T00:34:44;21.40;;;11.07;;
6356;SDS011;3211;53.452;-2.264;2023-01-19T00:37:15;22.27;;;11.57;;
6356;SDS011;3211;53.452;-2.264;2023-01-19T00:39:42;19.77;;;11.07;;
6356;SDS011;3211;53.452;-2.264;2023-01-19T00:42:10;27.20;;;13.30;;
6356;SDS011;3211;53.452;-2.264;2023-01-19T00:44:55;18.70;;;10.60;;
6356;SDS011;3211;53.452;-2.264;2023-01-19T00:47:22;17.77;;;12.00;;
6356;SDS011;3211;53.452;-2.264;2023-01-19T00:49:49;19.83;;;11.77;;
6356;SDS011;3211;53.452;-2.264;2023-01-19T00:52:17;17.40;;;11.07;;
6356;SDS011;3211;53.452;-2.264;2023-01-19T00:54:44;18.13;;;11.27;;
6356;SDS011;3211;53.452;-2.264;2023-01-19T00:57:11;15.73;;;10.10;;
6356;SDS011;3211;53.452;-2.264;2023-01-19T00:59:39;17.60;;;10.40;;
6356;SDS011;3211;53.452;-2.264;2023-01-19T01:02:07;21.80;;;11.03;;
6356;SDS011;3211;53.452;-2.264;2023-01-19T01:04:35;16.37;;;9.53;;
6356;SDS011;3211;53.452;-2.264;2023-01-19T01:07:05;20.00;;;10.77;;
6356;SDS011;3211;53.452;-2.264;2023-01-19T01:09:33;19.30;;;10.60;;
6356;SDS011;3211;53.452;-2.264;2023-01-19T01:12:00;18.83;;;10.03;;
6356;SDS011;3211;53.452;-2.264;2023-01-19T01:14:27;17.00;;;9.70;;
6356;SDS011;3211;53.452;-2.264;2023-01-19T01:16:54;15.87;;;10.10;;
6356;SDS011;3211;53.452;-2.264;2023-01-19T01:19:21;14.80;;;9.80;;
6356;SDS011;3211;53.452;-2.264;2023-01-19T01:21:48;15.47;;;9.53;;
6356;SDS011;3211;53.452;-2.264;2023-01-19T01:24:15;19.63;;;10.20;;
6356;SDS011;3211;53.452;-2.264;2023-01-19T01:26:44;18.47;;;9.10;;
6356;SDS011;3211;53.452;-2.264;2023-01-19T01:29:11;14.63;;;9.40;;
6356;SDS011;3211;53.452;-2.264;2023-01-19T01:31:38;13.87;;;8.27;;
6356;SDS011;3211;53.452;-2.264;2023-01-19T01:34:05;13.13;;;7.53;;
6356;SDS011;3211;53.452;-2.264;2023-01-19T01:36:32;12.40;;;7.50;;
6356;SDS011;3211;53.452;-2.264;2023-01-19T01:39:00;18.03;;;8.37;;
6356;SDS011;3211;53.452;-2.264;2023-01-19T01:41:27;15.43;;;7.47;;
6356;SDS011;3211;53.452;-2.264;2023-01-19T01:43:56;13.37;;;7.13;;
6356;SDS011;3211;53.452;-2.264;2023-01-19T01:46:26;16.60;;;8.30;;
6356;SDS011;3211;53.452;-2.264;2023-01-19T01:48:56;17.08;;;7.10;;
6356;SDS011;3211;53.452;-2.264;2023-01-19T01:51:30;11.10;;;6.20;;
6356;SDS011;3211;53.452;-2.264;2023-01-19T01:54:01;15.10;;;6.60;;
6356;SDS011;3211;53.452;-2.264;2023-01-19T01:56:33;10.50;;;6.50;;
6356;SDS011;3211;53.452;-2.264;2023-01-19T01:59:04;11.93;;;6.60;;
6356;SDS011;3211;53.452;-2.264;2023-01-19T02:01:34;9.93;;;5.90;;
6356;SDS011;3211;53.452;-2.264;2023-01-19T02:04:19;10.13;;;5.47;;
6356;SDS011;3211;53.452;-2.264;2023-01-19T02:06:47;7.05;;;5.65;;
6356;SDS011;3211;53.452;-2.264;2023-01-19T02:09:32;12.48;;;5.95;;
6356;SDS011;3211;53.452;-2.264;2023-01-19T02:12:20;11.57;;;5.23;;
6356;SDS011;3211;53.452;-2.264;2023-01-19T02:15:14;10.57;;;5.50;;
6356;SDS011;3211;53.452;-2.264;2023-01-19T02:17:42;7.33;;;4.93;;
6356;SDS011;3211;53.452;-2.264;2023-01-19T02:20:09;9.00;;;5.43;;
6356;SDS011;3211;53.452;-2.264;2023-01-19T02:22:39;11.07;;;5.20;;
6356;SDS011;3211;53.452;-2.264;2023-01-19T02:25:13;12.60;;;5.28;;
6356;SDS011;3211;53.452;-2.264;2023-01-19T02:27:41;7.00;;;4.77;;
6356;SDS011;3211;53.452;-2.264;2023-01-19T02:30:10;10.07;;;5.70;;
6356;SDS011;3211;53.452;-2.264;2023-01-19T02:32:40;13.48;;;5.80;;
6356;SDS011;3211;53.452;-2.264;2023-01-19T02:35:08;10.10;;;5.20;;
6356;SDS011;3211;53.452;-2.264;2023-01-19T02:37:36;8.55;;;5.32;;
6356;SDS011;3211;53.452;-2.264;2023-01-19T02:40:06;13.52;;;6.03;;
6356;SDS011;3211;53.452;-2.264;2023-01-19T02:42:38;14.05;;;5.32;;
6356;SDS011;3211;53.452;-2.264;2023-01-19T02:45:08;11.15;;;5.30;;
6356;SDS011;3211;53.452;-2.264;2023-01-19T02:47:38;20.83;;;6.15;;
6356;SDS011;3211;53.452;-2.264;2023-01-19T02:56:26;14.75;;;6.30;;
6356;SDS011;3211;53.452;-2.264;2023-01-19T02:59:05;14.27;;;6.82;;
6356;SDS011;3211;53.452;-2.264;2023-01-19T03:01:42;18.40;;;7.10;;
6356;SDS011;3211;53.452;-2.264;2023-01-19T03:04:20;15.63;;;7.30;;
6356;SDS011;3211;53.452;-2.264;2023-01-19T03:06:54;11.77;;;5.97;;
6356;SDS011;3211;53.452;-2.264;2023-01-19T03:09:28;11.30;;;6.70;;
6356;SDS011;3211;53.452;-2.264;2023-01-19T03:12:00;13.55;;;6.20;;
6356;SDS011;3211;53.452;-2.264;2023-01-19T03:14:36;10.97;;;5.93;;
6356;SDS011;3211;53.452;-2.264;2023-01-19T03:17:10;11.47;;;5.53;;
6356;SDS011;3211;53.452;-2.264;2023-01-19T03:19:40;12.77;;;6.90;;
6356;SDS011;3211;53.452;-2.264;2023-01-19T03:22:10;16.02;;;6.03;;
6356;SDS011;3211;53.452;-2.264;2023-01-19T03:24:40;12.60;;;7.17;;
6356;SDS011;3211;53.452;-2.264;2023-01-19T03:27:09;13.30;;;5.40;;
6356;SDS011;3211;53.452;-2.264;2023-01-19T03:29:42;10.85;;;5.63;;
6356;SDS011;3211;53.452;-2.264;2023-01-19T03:32:14;11.87;;;5.97;;
6356;SDS011;3211;53.452;-2.264;2023-01-19T03:34:43;13.77;;;6.17;;
6356;SDS011;3211;53.452;-2.264;2023-01-19T03:37:14;8.80;;;5.33;;
6356;SDS011;3211;53.452;-2.264;2023-01-19T03:39:43;7.83;;;4.90;;
6356;SDS011;3211;53.452;-2.264;2023-01-19T03:42:10;10.20;;;5.30;;
6356;SDS011;3211;53.452;-2.264;2023-01-19T03:44:40;10.50;;;5.30;;
6356;SDS011;3211;53.452;-2.264;2023-01-19T03:47:10;9.13;;;5.23;;
6356;SDS011;3211;53.452;-2.264;2023-01-19T03:49:40;8.50;;;5.28;;
6356;SDS011;3211;53.452;-2.264;2023-01-19T03:52:09;9.00;;;5.13;;
6356;SDS011;3211;53.452;-2.264;2023-01-19T03:54:36;8.50;;;4.90;;
6356;SDS011;3211;53.452;-2.264;2023-01-19T03:57:05;9.10;;;5.10;;
6356;SDS011;3211;53.452;-2.264;2023-01-19T03:59:32;9.30;;;5.80;;
6356;SDS011;3211;53.452;-2.264;2023-01-19T04:02:00;14.00;;;5.63;;
6356;SDS011;3211;53.452;-2.264;2023-01-19T04:04:27;10.43;;;5.15;;
6356;SDS011;3211;53.452;-2.264;2023-01-19T04:06:54;12.63;;;5.30;;
6356;SDS011;3211;53.452;-2.264;2023-01-19T04:09:21;9.67;;;5.07;;
6356;SDS011;3211;53.452;-2.264;2023-01-19T04:11:48;7.80;;;4.40;;
6356;SDS011;3211;53.452;-2.264;2023-01-19T04:14:15;7.93;;;4.30;;
6356;SDS011;3211;53.452;-2.264;2023-01-19T04:16:43;8.93;;;4.50;;
6356;SDS011;3211;53.452;-2.264;2023-01-19T04:19:11;9.13;;;4.87;;
6356;SDS011;3211;53.452;-2.264;2023-01-19T04:21:38;6.77;;;4.77;;
6356;SDS011;3211;53.452;-2.264;2023-01-19T04:24:05;9.37;;;5.20;;
6356;SDS011;3211;53.452;-2.264;2023-01-19T04:26:32;10.50;;;5.40;;
6356;SDS011;3211;53.452;-2.264;2023-01-19T04:28:59;6.60;;;4.90;;
6356;SDS011;3211;53.452;-2.264;2023-01-19T04:31:26;10.57;;;5.23;;
6356;SDS011;3211;53.452;-2.264;2023-01-19T04:33:54;7.10;;;4.37;;
6356;SDS011;3211;53.452;-2.264;2023-01-19T04:36:22;15.20;;;5.27;;
6356;SDS011;3211;53.452;-2.264;2023-01-19T04:38:49;8.63;;;4.00;;
6356;SDS011;3211;53.452;-2.264;2023-01-19T04:41:16;8.57;;;4.00;;
6356;SDS011;3211;53.452;-2.264;2023-01-19T04:43:43;9.10;;;4.50;;
6356;SDS011;3211;53.452;-2.264;2023-01-19T04:46:11;10.47;;;4.70;;
6356;SDS011;3211;53.452;-2.264;2023-01-19T04:48:38;8.50;;;4.17;;
6356;SDS011;3211;53.452;-2.264;2023-01-19T04:51:05;5.80;;;4.00;;
6356;SDS011;3211;53.452;-2.264;2023-01-19T04:53:35;9.00;;;4.25;;
6356;SDS011;3211;53.452;-2.264;2023-01-19T04:56:02;11.73;;;4.40;;
6356;SDS011;3211;53.452;-2.264;2023-01-19T04:58:29;9.77;;;4.30;;
6356;SDS011;3211;53.452;-2.264;2023-01-19T05:00:56;4.30;;;3.70;;
6356;SDS011;3211;53.452;-2.264;2023-01-19T05:03:23;11.80;;;3.63;;
6356;SDS011;3211;53.452;-2.264;2023-01-19T05:05:50;9.97;;;3.90;;
6356;SDS011;3211;53.452;-2.264;2023-01-19T05:08:17;6.90;;;3.60;;
6356;SDS011;3211;53.452;-2.264;2023-01-19T05:10:45;6.90;;;4.25;;
6356;SDS011;3211;53.452;-2.264;2023-01-19T05:13:13;7.57;;;3.53;;
6356;SDS011;3211;53.452;-2.264;2023-01-19T05:15:40;7.70;;;4.63;;
6356;SDS011;3211;53.452;-2.264;2023-01-19T05:18:07;5.43;;;3.83;;
6356;SDS011;3211;53.452;-2.264;2023-01-19T05:20:34;4.73;;;3.33;;
6356;SDS011;3211;53.452;-2.264;2023-01-19T05:23:01;7.13;;;3.97;;
6356;SDS011;3211;53.452;-2.264;2023-01-19T05:25:28;5.30;;;3.57;;
6356;SDS011;3211;53.452;-2.264;2023-01-19T05:27:56;9.90;;;4.47;;
6356;SDS011;3211;53.452;-2.264;2023-01-19T05:30:23;6.50;;;3.60;;
6356;SDS011;3211;53.452;-2.264;2023-01-19T05:32:50;11.47;;;4.43;;
6356;SDS011;3211;53.452;-2.264;2023-01-19T05:35:17;6.23;;;3.87;;
6356;SDS011;3211;53.452;-2.264;2023-01-19T05:37:44;5.23;;;3.33;;
6356;SDS011;3211;53.452;-2.264;2023-01-19T05:40:11;6.80;;;3.90;;
6356;SDS011;3211;53.452;-2.264;2023-01-19T05:42:38;6.23;;;3.67;;
6356;SDS011;3211;53.452;-2.264;2023-01-19T05:45:07;9.47;;;3.90;;
6356;SDS011;3211;53.452;-2.264;2023-01-19T05:47:35;7.77;;;3.67;;
6356;SDS011;3211;53.452;-2.264;2023-01-19T05:50:04;6.30;;;3.67;;
6356;SDS011;3211;53.452;-2.264;2023-01-19T05:52:31;4.00;;;3.37;;
6356;SDS011;3211;53.452;-2.264;2023-01-19T05:54:58;5.03;;;3.27;;
6356;SDS011;3211;53.452;-2.264;2023-01-19T05:57:25;7.30;;;3.33;;
6356;SDS011;3211;53.452;-2.264;2023-01-19T05:59:52;5.73;;;3.70;;
6356;SDS011;3211;53.452;-2.264;2023-01-19T06:02:20;7.30;;;3.40;;
6356;SDS011;3211;53.452;-2.264;2023-01-19T06:04:52;5.40;;;3.20;;
6356;SDS011;3211;53.452;-2.264;2023-01-19T06:07:20;5.43;;;3.87;;
6356;SDS011;3211;53.452;-2.264;2023-01-19T06:09:47;4.13;;;2.73;;
6356;SDS011;3211;53.452;-2.264;2023-01-19T06:12:14;3.90;;;2.90;;
6356;SDS011;3211;53.452;-2.264;2023-01-19T06:14:41;4.90;;;3.10;;
6356;SDS011;3211;53.452;-2.264;2023-01-19T06:17:08;4.70;;;3.50;;
6356;SDS011;3211;53.452;-2.264;2023-01-19T06:19:36;9.90;;;5.33;;
6356;SDS011;3211;53.452;-2.264;2023-01-19T06:22:03;7.77;;;3.43;;
6356;SDS011;3211;53.452;-2.264;2023-01-19T06:24:31;6.30;;;3.60;;
6356;SDS011;3211;53.452;-2.264;2023-01-19T06:26:58;14.10;;;3.90;;
6356;SDS011;3211;53.452;-2.264;2023-01-19T06:29:25;6.00;;;4.60;;
6356;SDS011;3211;53.452;-2.264;2023-01-19T06:31:52;7.40;;;3.30;;
6356;SDS011;3211;53.452;-2.264;2023-01-19T06:34:19;4.53;;;2.67;;
6356;SDS011;3211;53.452;-2.264;2023-01-19T06:36:48;8.57;;;3.10;;
6356;SDS011;3211;53.452;-2.264;2023-01-19T06:39:15;4.90;;;2.70;;
6356;SDS011;3211;53.452;-2.264;2023-01-19T06:41:43;7.30;;;2.70;;
6356;SDS011;3211;53.452;-2.264;2023-01-19T06:44:10;7.57;;;2.80;;
6356;SDS011;3211;53.452;-2.264;2023-01-19T06:46:37;8.10;;;2.97;;
6356;SDS011;3211;53.452;-2.264;2023-01-19T06:49:03;9.83;;;3.13;;
6356;SDS011;3211;53.452;-2.264;2023-01-19T06:51:31;6.43;;;3.27;;
6356;SDS011;3211;53.452;-2.264;2023-01-19T06:54:00;10.63;;;3.63;;
6356;SDS011;3211;53.452;-2.264;2023-01-19T06:56:27;8.40;;;3.00;;
6356;SDS011;3211;53.452;-2.264;2023-01-19T06:58:54;14.03;;;7.60;;
6356;SDS011;3211;53.452;-2.264;2023-01-19T07:01:21;7.60;;;5.50;;
6356;SDS011;3211;53.452;-2.264;2023-01-19T07:03:47;6.00;;;3.40;;
6356;SDS011;3211;53.452;-2.264;2023-01-19T07:06:14;4.67;;;3.40;;
6356;SDS011;3211;53.452;-2.264;2023-01-19T07:08:41;5.53;;;4.13;;
6356;SDS011;3211;53.452;-2.264;2023-01-19T07:11:12;4.80;;;2.83;;
6356;SDS011;3211;53.452;-2.264;2023-01-19T07:13:39;10.67;;;4.97;;
6356;SDS011;3211;53.452;-2.264;2023-01-19T07:16:09;12.23;;;4.10;;
6356;SDS011;3211;53.452;-2.264;2023-01-19T07:18:37;12.27;;;4.63;;
6356;SDS011;3211;53.452;-2.264;2023-01-19T07:21:05;9.80;;;6.27;;
6356;SDS011;3211;53.452;-2.264;2023-01-19T07:23:33;10.50;;;3.90;;
6356;SDS011;3211;53.452;-2.264;2023-01-19T07:26:00;9.40;;;5.27;;
6356;SDS011;3211;53.452;-2.264;2023-01-19T07:28:29;7.63;;;3.63;;
6356;SDS011;3211;53.452;-2.264;2023-01-19T07:30:57;4.97;;;3.60;;
6356;SDS011;3211;53.452;-2.264;2023-01-19T07:33:24;5.93;;;3.40;;
6356;SDS011;3211;53.452;-2.264;2023-01-19T07:35:51;6.10;;;3.73;;
6356;SDS011;3211;53.452;-2.264;2023-01-19T07:38:19;6.30;;;4.03;;
6356;SDS011;3211;53.452;-2.264;2023-01-19T07:40:46;5.90;;;4.33;;
6356;SDS011;3211;53.452;-2.264;2023-01-19T07:43:13;8.50;;;4.73;;
6356;SDS011;3211;53.452;-2.264;2023-01-19T07:45:42;7.40;;;4.17;;
6356;SDS011;3211;53.452;-2.264;2023-01-19T07:48:10;11.33;;;5.10;;
6356;SDS011;3211;53.452;-2.264;2023-01-19T07:50:37;12.00;;;5.22;;
6356;SDS011;3211;53.452;-2.264;2023-01-19T07:53:04;7.23;;;4.10;;
6356;SDS011;3211;53.452;-2.264;2023-01-19T07:55:32;8.77;;;4.83;;
6356;SDS011;3211;53.452;-2.264;2023-01-19T07:57:59;7.20;;;4.10;;
6356;SDS011;3211;53.452;-2.264;2023-01-19T08:00:29;13.40;;;5.00;;
6356;SDS011;3211;53.452;-2.264;2023-01-19T08:02:59;13.27;;;5.00;;
6356;SDS011;3211;53.452;-2.264;2023-01-19T08:05:27;9.77;;;6.00;;
6356;SDS011;3211;53.452;-2.264;2023-01-19T08:07:54;8.00;;;4.60;;
6356;SDS011;3211;53.452;-2.264;2023-01-19T08:10:22;7.87;;;4.67;;
6356;SDS011;3211;53.452;-2.264;2023-01-19T08:12:51;6.07;;;4.45;;
6356;SDS011;3211;53.452;-2.264;2023-01-19T08:15:18;9.50;;;5.60;;
6356;SDS011;3211;53.452;-2.264;2023-01-19T08:17:52;11.60;;;5.97;;
6356;SDS011;3211;53.452;-2.264;2023-01-19T08:20:22;9.17;;;5.50;;
6356;SDS011;3211;53.452;-2.264;2023-01-19T08:22:49;8.73;;;5.03;;
6356;SDS011;3211;53.452;-2.264;2023-01-19T08:25:23;10.23;;;5.63;;
6356;SDS011;3211;53.452;-2.264;2023-01-19T08:27:52;10.73;;;6.20;;
6356;SDS011;3211;53.452;-2.264;2023-01-19T08:30:20;13.27;;;5.47;;
6356;SDS011;3211;53.452;-2.264;2023-01-19T08:32:51;8.77;;;5.60;;
6356;SDS011;3211;53.452;-2.264;2023-01-19T08:35:18;12.50;;;5.43;;
6356;SDS011;3211;53.452;-2.264;2023-01-19T08:37:48;9.60;;;6.03;;
6356;SDS011;3211;53.452;-2.264;2023-01-19T08:40:15;9.93;;;6.27;;
6356;SDS011;3211;53.452;-2.264;2023-01-19T08:42:42;11.03;;;6.60;;
6356;SDS011;3211;53.452;-2.264;2023-01-19T08:45:09;9.60;;;6.23;;
6356;SDS011;3211;53.452;-2.264;2023-01-19T08:47:37;10.60;;;6.33;;
6356;SDS011;3211;53.452;-2.264;2023-01-19T08:50:04;11.57;;;7.27;;
6356;SDS011;3211;53.452;-2.264;2023-01-19T08:52:31;16.87;;;7.53;;
6356;SDS011;3211;53.452;-2.264;2023-01-19T08:54:59;10.87;;;6.20;;
6356;SDS011;3211;53.452;-2.264;2023-01-19T08:57:26;13.30;;;7.80;;
6356;SDS011;3211;53.452;-2.264;2023-01-19T08:59:53;17.97;;;6.83;;
6356;SDS011;3211;53.452;-2.264;2023-01-19T09:02:20;16.50;;;8.47;;
6356;SDS011;3211;53.452;-2.264;2023-01-19T09:04:47;20.27;;;10.07;;
6356;SDS011;3211;53.452;-2.264;2023-01-19T09:07:17;11.03;;;7.40;;
6356;SDS011;3211;53.452;-2.264;2023-01-19T09:09:44;9.87;;;6.87;;
6356;SDS011;3211;53.452;-2.264;2023-01-19T09:12:12;10.17;;;6.70;;
6356;SDS011;3211;53.452;-2.264;2023-01-19T09:14:39;9.70;;;6.40;;
6356;SDS011;3211;53.452;-2.264;2023-01-19T09:17:06;10.33;;;6.63;;
6356;SDS011;3211;53.452;-2.264;2023-01-19T09:19:33;16.87;;;6.20;;
6356;SDS011;3211;53.452;-2.264;2023-01-19T09:22:00;8.97;;;6.07;;
6356;SDS011;3211;53.452;-2.264;2023-01-19T09:24:27;9.20;;;5.77;;
6356;SDS011;3211;53.452;-2.264;2023-01-19T09:26:54;10.00;;;6.07;;
6356;SDS011;3211;53.452;-2.264;2023-01-19T09:29:22;12.77;;;7.20;;
6356;SDS011;3211;53.452;-2.264;2023-01-19T09:31:49;9.00;;;5.60;;
6356;SDS011;3211;53.452;-2.264;2023-01-19T09:34:16;9.47;;;5.87;;
6356;SDS011;3211;53.452;-2.264;2023-01-19T09:36:43;13.90;;;6.00;;
6356;SDS011;3211;53.452;-2.264;2023-01-19T09:39:11;8.77;;;6.23;;
6356;SDS011;3211;53.452;-2.264;2023-01-19T09:41:38;7.70;;;5.77;;
6356;SDS011;3211;53.452;-2.264;2023-01-19T09:44:12;9.40;;;5.90;;
6356;SDS011;3211;53.452;-2.264;2023-01-19T09:46:45;10.23;;;5.87;;
6356;SDS011;3211;53.452;-2.264;2023-01-19T09:49:12;7.67;;;5.03;;
6356;SDS011;3211;53.452;-2.264;2023-01-19T09:51:42;7.60;;;5.83;;
6356;SDS011;3211;53.452;-2.264;2023-01-19T09:54:12;7.33;;;5.63;;
6356;SDS011;3211;53.452;-2.264;2023-01-19T09:56:41;9.30;;;5.63;;
6356;SDS011;3211;53.452;-2.264;2023-01-19T09:59:19;6.90;;;5.07;;
6356;SDS011;3211;53.452;-2.264;2023-01-19T10:02:01;7.13;;;5.07;;
6356;SDS011;3211;53.452;-2.264;2023-01-19T10:04:56;9.60;;;5.53;;
6356;SDS011;3211;53.452;-2.264;2023-01-19T10:07:38;12.87;;;6.00;;
6356;SDS011;3211;53.452;-2.264;2023-01-19T10:10:18;6.80;;;5.23;;
6356;SDS011;3211;53.452;-2.264;2023-01-19T10:12:48;17.97;;;6.00;;
6356;SDS011;3211;53.452;-2.264;2023-01-19T10:15:35;13.43;;;5.33;;
6356;SDS011;3211;53.452;-2.264;2023-01-19T10:18:17;8.27;;;5.30;;
6356;SDS011;3211;53.452;-2.264;2023-01-19T10:20:50;10.73;;;5.20;;
6356;SDS011;3211;53.452;-2.264;2023-01-19T10:23:33;6.53;;;5.33;;
6356;SDS011;3211;53.452;-2.264;2023-01-19T10:26:05;8.77;;;5.30;;
6356;SDS011;3211;53.452;-2.264;2023-01-19T10:28:35;7.70;;;5.20;;
6356;SDS011;3211;53.452;-2.264;2023-01-19T10:31:04;7.23;;;5.23;;
6356;SDS011;3211;53.452;-2.264;2023-01-19T10:33:34;7.23;;;4.83;;
6356;SDS011;3211;53.452;-2.264;2023-01-19T10:36:03;7.80;;;5.17;;
6356;SDS011;3211;53.452;-2.264;2023-01-19T10:38:31;10.33;;;5.10;;
6356;SDS011;3211;53.452;-2.264;2023-01-19T10:41:00;12.23;;;5.00;;
6356;SDS011;3211;53.452;-2.264;2023-01-19T10:43:34;11.80;;;4.63;;
6356;SDS011;3211;53.452;-2.264;2023-01-19T10:46:04;13.80;;;4.27;;
6356;SDS011;3211;53.452;-2.264;2023-01-19T10:48:39;8.00;;;5.10;;
6356;SDS011;3211;53.452;-2.264;2023-01-19T10:51:08;8.97;;;4.03;;
6356;SDS011;3211;53.452;-2.264;2023-01-19T10:53:36;8.90;;;4.43;;
6356;SDS011;3211;53.452;-2.264;2023-01-19T10:56:13;6.90;;;4.57;;
6356;SDS011;3211;53.452;-2.264;2023-01-19T10:58:42;10.63;;;4.10;;
6356;SDS011;3211;53.452;-2.264;2023-01-19T11:01:14;12.10;;;5.27;;
6356;SDS011;3211;53.452;-2.264;2023-01-19T11:03:44;7.93;;;4.70;;
6356;SDS011;3211;53.452;-2.264;2023-01-19T11:06:18;10.60;;;6.50;;
6356;SDS011;3211;53.452;-2.264;2023-01-19T11:08:51;8.53;;;5.07;;
6356;SDS011;3211;53.452;-2.264;2023-01-19T11:11:19;6.90;;;4.87;;
6356;SDS011;3211;53.452;-2.264;2023-01-19T11:14:01;26.63;;;12.80;;
6356;SDS011;3211;53.452;-2.264;2023-01-19T11:16:31;9.13;;;5.40;;
6356;SDS011;3211;53.452;-2.264;2023-01-19T11:19:03;8.80;;;4.50;;
6356;SDS011;3211;53.452;-2.264;2023-01-19T11:21:31;6.10;;;4.47;;
6356;SDS011;3211;53.452;-2.264;2023-01-19T11:23:59;17.23;;;4.50;;
6356;SDS011;3211;53.452;-2.264;2023-01-19T11:26:31;6.80;;;4.30;;
6356;SDS011;3211;53.452;-2.264;2023-01-19T11:29:00;6.77;;;4.40;;
6356;SDS011;3211;53.452;-2.264;2023-01-19T11:31:30;8.07;;;4.27;;
6356;SDS011;3211;53.452;-2.264;2023-01-19T11:33:59;6.00;;;3.90;;
6356;SDS011;3211;53.452;-2.264;2023-01-19T11:36:29;6.77;;;3.97;;
6356;SDS011;3211;53.452;-2.264;2023-01-19T11:38:58;8.20;;;4.30;;
6356;SDS011;3211;53.452;-2.264;2023-01-19T11:41:29;19.47;;;7.47;;
6356;SDS011;3211;53.452;-2.264;2023-01-19T11:44:01;13.63;;;7.63;;
6356;SDS011;3211;53.452;-2.264;2023-01-19T11:46:37;16.33;;;5.90;;
6356;SDS011;3211;53.452;-2.264;2023-01-19T11:49:07;13.23;;;5.37;;
6356;SDS011;3211;53.452;-2.264;2023-01-19T11:51:48;5.57;;;4.20;;
6356;SDS011;3211;53.452;-2.264;2023-01-19T11:54:23;7.40;;;4.57;;
6356;SDS011;3211;53.452;-2.264;2023-01-19T11:56:55;8.47;;;5.03;;
6356;SDS011;3211;53.452;-2.264;2023-01-19T11:59:24;10.57;;;4.67;;
6356;SDS011;3211;53.452;-2.264;2023-01-19T12:01:52;8.63;;;4.23;;
6356;SDS011;3211;53.452;-2.264;2023-01-19T12:04:23;4.90;;;4.17;;
6356;SDS011;3211;53.452;-2.264;2023-01-19T12:06:54;8.00;;;4.20;;
6356;SDS011;3211;53.452;-2.264;2023-01-19T12:09:24;16.63;;;5.00;;
6356;SDS011;3211;53.452;-2.264;2023-01-19T12:11:55;10.60;;;4.80;;
6356;SDS011;3211;53.452;-2.264;2023-01-19T12:14:24;8.57;;;5.40;;
6356;SDS011;3211;53.452;-2.264;2023-01-19T12:16:58;9.10;;;4.47;;
6356;SDS011;3211;53.452;-2.264;2023-01-19T12:19:28;10.10;;;4.70;;
6356;SDS011;3211;53.452;-2.264;2023-01-19T12:22:08;8.00;;;4.63;;
6356;SDS011;3211;53.452;-2.264;2023-01-19T12:24:40;10.23;;;5.17;;
6356;SDS011;3211;53.452;-2.264;2023-01-19T12:27:13;8.73;;;4.63;;
6356;SDS011;3211;53.452;-2.264;2023-01-19T12:29:46;8.10;;;5.33;;
6356;SDS011;3211;53.452;-2.264;2023-01-19T12:32:18;9.53;;;5.20;;
6356;SDS011;3211;53.452;-2.264;2023-01-19T12:34:57;8.90;;;5.40;;
6356;SDS011;3211;53.452;-2.264;2023-01-19T12:37:32;14.97;;;5.20;;
6356;SDS011;3211;53.452;-2.264;2023-01-19T12:40:19;11.03;;;7.00;;
6356;SDS011;3211;53.452;-2.264;2023-01-19T12:42:52;6.40;;;4.80;;
6356;SDS011;3211;53.452;-2.264;2023-01-19T12:45:23;10.53;;;4.73;;
6356;SDS011;3211;53.452;-2.264;2023-01-19T12:47:55;6.07;;;5.10;;
6356;SDS011;3211;53.452;-2.264;2023-01-19T12:50:22;8.00;;;5.53;;
6356;SDS011;3211;53.452;-2.264;2023-01-19T12:52:52;9.00;;;5.90;;
6356;SDS011;3211;53.452;-2.264;2023-01-19T12:55:23;6.80;;;4.50;;
6356;SDS011;3211;53.452;-2.264;2023-01-19T12:57:56;10.30;;;5.30;;
6356;SDS011;3211;53.452;-2.264;2023-01-19T13:00:36;9.53;;;5.57;;
6356;SDS011;3211;53.452;-2.264;2023-01-19T13:06:05;7.50;;;5.30;;
6356;SDS011;3211;53.452;-2.264;2023-01-19T13:11:22;5.80;;;4.20;;
6356;SDS011;3211;53.452;-2.264;2023-01-19T13:17:00;10.00;;;5.23;;
6356;SDS011;3211;53.452;-2.264;2023-01-19T13:19:46;7.37;;;4.10;;
6356;SDS011;3211;53.452;-2.264;2023-01-19T13:25:42;5.07;;;4.10;;
6356;SDS011;3211;53.452;-2.264;2023-01-19T13:28:18;5.70;;;3.50;;
6356;SDS011;3211;53.452;-2.264;2023-01-19T13:30:54;11.33;;;3.17;;
6356;SDS011;3211;53.452;-2.264;2023-01-19T13:33:24;2.90;;;2.60;;
6356;SDS011;3211;53.452;-2.264;2023-01-19T13:35:54;3.00;;;1.90;;
6356;SDS011;3211;53.452;-2.264;2023-01-19T13:38:22;5.70;;;2.00;;
6356;SDS011;3211;53.452;-2.264;2023-01-19T13:40:52;4.20;;;2.20;;
6356;SDS011;3211;53.452;-2.264;2023-01-19T13:43:23;8.73;;;1.87;;
6356;SDS011;3211;53.452;-2.264;2023-01-19T13:45:53;3.37;;;2.40;;
6356;SDS011;3211;53.452;-2.264;2023-01-19T13:48:21;4.83;;;2.13;;
6356;SDS011;3211;53.452;-2.264;2023-01-19T13:50:59;2.73;;;2.23;;
6356;SDS011;3211;53.452;-2.264;2023-01-19T13:53:29;5.43;;;2.60;;
6356;SDS011;3211;53.452;-2.264;2023-01-19T13:58:56;2.87;;;2.13;;
6356;SDS011;3211;53.452;-2.264;2023-01-19T14:01:24;9.80;;;2.40;;
6356;SDS011;3211;53.452;-2.264;2023-01-19T14:03:51;6.83;;;2.40;;
6356;SDS011;3211;53.452;-2.264;2023-01-19T14:06:22;4.07;;;2.20;;
6356;SDS011;3211;53.452;-2.264;2023-01-19T14:09:13;3.87;;;2.27;;
6356;SDS011;3211;53.452;-2.264;2023-01-19T14:11:43;3.33;;;1.87;;
6356;SDS011;3211;53.452;-2.264;2023-01-19T14:14:22;3.50;;;2.10;;
6356;SDS011;3211;53.452;-2.264;2023-01-19T14:16:50;3.97;;;1.50;;
6356;SDS011;3211;53.452;-2.264;2023-01-19T14:19:17;4.93;;;2.07;;
6356;SDS011;3211;53.452;-2.264;2023-01-19T14:21:44;6.40;;;1.60;;
6356;SDS011;3211;53.452;-2.264;2023-01-19T14:24:14;2.10;;;1.50;;
6356;SDS011;3211;53.452;-2.264;2023-01-19T14:26:45;2.20;;;1.30;;
6356;SDS011;3211;53.452;-2.264;2023-01-19T14:29:20;2.97;;;1.57;;
6356;SDS011;3211;53.452;-2.264;2023-01-19T14:31:50;1.93;;;1.50;;
6356;SDS011;3211;53.452;-2.264;2023-01-19T14:34:32;7.87;;;1.60;;
6356;SDS011;3211;53.452;-2.264;2023-01-19T14:37:03;5.20;;;1.83;;
6356;SDS011;3211;53.452;-2.264;2023-01-19T14:39:42;3.17;;;1.40;;
6356;SDS011;3211;53.452;-2.264;2023-01-19T14:42:13;2.13;;;1.20;;
6356;SDS011;3211;53.452;-2.264;2023-01-19T14:44:44;3.17;;;1.70;;
6356;SDS011;3211;53.452;-2.264;2023-01-19T14:47:20;1.83;;;1.10;;
6356;SDS011;3211;53.452;-2.264;2023-01-19T14:49:53;6.20;;;2.07;;
6356;SDS011;3211;53.452;-2.264;2023-01-19T14:52:23;3.13;;;1.57;;
6356;SDS011;3211;53.452;-2.264;2023-01-19T14:55:15;4.70;;;1.93;;
6356;SDS011;3211;53.452;-2.264;2023-01-19T14:57:47;2.90;;;1.47;;
6356;SDS011;3211;53.452;-2.264;2023-01-19T15:00:15;6.93;;;1.47;;
6356;SDS011;3211;53.452;-2.264;2023-01-19T15:02:43;5.53;;;1.60;;
6356;SDS011;3211;53.452;-2.264;2023-01-19T15:05:10;4.50;;;1.57;;
6356;SDS011;3211;53.452;-2.264;2023-01-19T15:07:37;4.07;;;1.67;;
6356;SDS011;3211;53.452;-2.264;2023-01-19T15:10:09;1.93;;;1.20;;
6356;SDS011;3211;53.452;-2.264;2023-01-19T15:12:42;1.63;;;1.20;;
6356;SDS011;3211;53.452;-2.264;2023-01-19T15:15:17;4.80;;;1.90;;
6356;SDS011;3211;53.452;-2.264;2023-01-19T15:17:49;8.40;;;1.60;;
6356;SDS011;3211;53.452;-2.264;2023-01-19T15:20:17;2.03;;;1.30;;
6356;SDS011;3211;53.452;-2.264;2023-01-19T15:22:45;1.67;;;1.20;;
6356;SDS011;3211;53.452;-2.264;2023-01-19T15:25:13;6.27;;;2.13;;
6356;SDS011;3211;53.452;-2.264;2023-01-19T15:27:41;6.60;;;1.60;;
6356;SDS011;3211;53.452;-2.264;2023-01-19T15:30:12;6.87;;;1.30;;
6356;SDS011;3211;53.452;-2.264;2023-01-19T15:32:43;6.23;;;1.80;;